Time;durP1;ratioP1;P1;durP2;ratioP2;P2;SDS_P1;SDS_P2;PMS_P1;PMS_P2;Temp;Humidity;BMP_temperature;BMP_pressure;BME280_temperature;BME280_humidity;BME280_pressure;Samples;Min_cycle;Max_cycle;Signal;HPM_P1;HPM_P2
2022/08/13 00:04:08;;;;;;;8.52;4.88;;;;;;;19.82;65.95;97331.16;10235652;28;20503;-57
2022/08/13 00:09:13;;;;;;;8.77;6.43;;;;;;;19.70;66.82;97326.47;10254504;28;20057;-57
2022/08/13 00:14:11;;;;;;;8.88;6.47;;;;;;;19.65;66.76;97336.34;10252593;28;20104;-56
2022/08/13 00:19:10;;;;;;;12.38;7.28;;;;;;;19.64;66.91;97335.47;10254057;28;20022;-56
2022/08/13 00:24:09;;;;;;;13.65;7.57;;;;;;;19.67;66.44;97329.19;10254086;28;20033;-56
2022/08/13 00:29:09;;;;;;;9.88;7.00;;;;;;;19.70;66.88;97326.47;10224420;28;20042;-57
2022/08/13 00:34:08;;;;;;;11.50;7.10;;;;;;;19.71;67.13;97322.03;10223429;28;20081;-57
2022/08/13 00:39:09;;;;;;;11.10;7.30;;;;;;;19.72;67.27;97319.34;10225566;28;20039;-57
2022/08/13 00:44:12;;;;;;;10.20;6.25;;;;;;;19.74;67.38;97312.22;10256051;28;20083;-56
2022/08/13 00:49:12;;;;;;;9.05;6.55;;;;;;;19.76;67.84;97299.00;10256680;28;20070;-57
2022/08/13 00:54:19;;;;;;;9.40;6.20;;;;;;;19.65;68.74;97304.75;10217678;28;20085;-57
2022/08/13 00:59:18;;;;;;;9.75;6.55;;;;;;;19.58;69.30;97301.53;10215540;28;20066;-57
2022/08/13 01:04:20;;;;;;;9.30;6.47;;;;;;;19.55;69.71;97300.78;10237871;28;20153;-56
2022/08/13 01:09:19;;;;;;;9.20;7.00;;;;;;;19.48;70.05;97304.59;10255345;28;20065;-56
2022/08/13 01:14:19;;;;;;;10.88;6.43;;;;;;;19.39;70.21;97303.22;10254014;28;20046;-57
2022/08/13 01:19:19;;;;;;;9.55;6.63;;;;;;;19.40;70.26;97297.06;10256057;28;20085;-57
2022/08/13 01:24:20;;;;;;;7.90;6.38;;;;;;;19.34;70.47;97297.31;10254988;28;20771;-57
2022/08/13 01:29:20;;;;;;;9.10;6.10;;;;;;;19.29;70.93;97288.75;10253268;28;20871;-57
2022/08/13 01:34:22;;;;;;;8.95;7.13;;;;;;;19.30;70.61;97286.06;10254453;28;20787;-56
2022/08/13 01:39:21;;;;;;;10.27;6.38;;;;;;;19.31;70.57;97285.16;10245475;28;20085;-57
2022/08/13 01:44:20;;;;;;;8.20;6.30;;;;;;;19.30;71.04;97275.56;10211231;28;20066;-57
2022/08/13 01:54:38;;;;;;;8.00;6.30;;;;;;;19.30;72.98;97275.56;10251539;28;20061;-57
2022/08/13 01:59:39;;;;;;;10.05;6.20;;;;;;;19.24;73.57;97278.44;10250891;28;20077;-56
2022/08/13 02:04:39;;;;;;;8.30;6.13;;;;;;;19.17;73.66;97269.09;10213706;28;20490;-57
2022/08/13 02:09:41;;;;;;;9.52;6.63;;;;;;;19.17;74.00;97279.63;10210730;28;20077;-56
2022/08/13 02:14:42;;;;;;;7.78;5.95;;;;;;;19.15;73.49;97273.56;10246610;28;20062;-56
2022/08/13 02:19:43;;;;;;;7.63;5.47;;;;;;;19.17;73.15;97272.59;10251012;28;20065;-57
2022/08/13 02:24:52;;;;;;;8.98;6.53;;;;;;;19.17;72.75;97269.09;10230686;28;20070;-56
2022/08/13 02:29:53;;;;;;;10.35;6.47;;;;;;;19.14;73.06;97271.88;10210980;28;20531;-57
2022/08/13 02:34:53;;;;;;;7.72;5.85;;;;;;;19.02;74.56;97275.91;10224805;28;20540;-57
2022/08/13 02:39:52;;;;;;;7.93;6.20;;;;;;;18.88;75.95;97279.09;10250440;28;20074;-56
2022/08/13 02:44:51;;;;;;;8.63;5.53;;;;;;;18.83;75.98;97278.44;10253215;28;20069;-56
2022/08/13 02:49:51;;;;;;;7.18;6.05;;;;;;;18.78;76.31;97275.13;10226931;28;20067;-57
2022/08/13 02:54:50;;;;;;;6.65;5.55;;;;;;;18.75;76.51;97285.78;10213393;28;20069;-56
2022/08/13 02:59:50;;;;;;;9.50;6.30;;;;;;;18.73;76.66;97291.09;10240892;28;20070;-56
2022/08/13 03:04:49;;;;;;;7.40;6.47;;;;;;;18.74;76.86;97286.72;10261210;28;20096;-56
2022/08/13 03:09:48;;;;;;;8.70;6.47;;;;;;;18.71;77.18;97282.41;10258619;28;20464;-56
2022/08/13 03:14:49;;;;;;;8.77;6.00;;;;;;;18.72;77.12;97291.19;10260711;28;20081;-56
2022/08/13 03:19:48;;;;;;;10.48;6.45;;;;;;;18.71;76.69;97298.19;10253244;28;20077;-56
2022/08/13 03:24:47;;;;;;;10.27;6.72;;;;;;;18.72;76.35;97294.66;10259233;28;20042;-56
2022/08/13 03:29:50;;;;;;;9.25;6.40;;;;;;;18.71;76.06;97297.34;10257305;28;20061;-56
2022/08/13 03:34:51;;;;;;;9.30;6.32;;;;;;;18.67;75.65;97288.69;10245888;28;20093;-56
2022/08/13 03:39:50;;;;;;;9.10;6.47;;;;;;;18.66;75.42;97289.59;10219407;28;20086;-56
2022/08/13 03:44:49;;;;;;;7.53;5.72;;;;;;;18.66;74.50;97288.75;10247215;28;20185;-56
2022/08/13 03:49:48;;;;;;;9.02;6.38;;;;;;;18.45;76.85;97296.56;10255509;28;20061;-56
2022/08/13 03:54:47;;;;;;;7.50;6.55;;;;;;;18.47;77.46;97294.75;10254957;28;20093;-56
2022/08/13 03:59:48;;;;;;;7.85;6.25;;;;;;;18.38;78.00;97300.38;10255130;28;20141;-56
2022/08/13 04:04:47;;;;;;;11.98;7.03;;;;;;;18.36;78.23;97289.06;10254410;28;20085;-56
2022/08/13 04:09:46;;;;;;;9.02;6.90;;;;;;;18.45;78.07;97283.44;10253154;28;20081;-56
2022/08/13 04:14:46;;;;;;;8.48;7.10;;;;;;;18.52;77.90;97292.78;10252511;28;20081;-56
2022/08/13 04:19:45;;;;;;;10.70;7.28;;;;;;;18.49;77.88;97298.16;10251551;28;20078;-56
2022/08/13 04:24:44;;;;;;;7.57;6.10;;;;;;;18.67;77.54;97301.84;10252063;28;20112;-56
2022/08/13 04:29:43;;;;;;;6.88;5.63;;;;;;;18.82;76.55;97295.97;10226289;28;20034;-56
2022/08/13 04:34:42;;;;;;;12.07;6.35;;;;;;;18.97;75.24;97298.88;10222881;28;20495;-56
2022/08/13 04:39:41;;;;;;;6.95;5.68;;;;;;;19.14;74.72;97306.06;10220793;28;20033;-56
2022/08/13 04:44:40;;;;;;;9.10;6.13;;;;;;;19.25;73.95;97298.56;10250644;28;20488;-56
2022/08/13 04:49:39;;;;;;;12.00;7.00;;;;;;;19.36;73.59;97296.31;10251327;28;20053;-56
2022/08/13 04:54:38;;;;;;;10.80;7.40;;;;;;;19.51;73.91;97300.06;10246070;28;20049;-56
2022/08/13 04:59:38;;;;;;;10.27;6.38;;;;;;;19.61;73.77;97296.13;10251421;28;20054;-56
2022/08/13 05:04:37;;;;;;;9.73;5.95;;;;;;;19.73;72.95;97288.59;10250586;28;20073;-56
2022/08/13 05:09:36;;;;;;;9.07;6.07;;;;;;;19.79;72.54;97286.56;10252380;28;20084;-56
2022/08/13 05:14:35;;;;;;;12.30;6.72;;;;;;;19.85;71.98;97288.88;10250197;28;20037;-56
2022/08/13 05:19:34;;;;;;;12.23;6.88;;;;;;;19.73;72.06;97252.59;10212713;28;20130;-56
2022/08/13 05:24:37;;;;;;;11.80;6.65;;;;;;;20.04;71.88;97282.78;10244474;28;20039;-56
2022/08/13 05:29:38;;;;;;;11.50;7.22;;;;;;;20.10;71.47;97287.75;10250300;28;20077;-56
2022/08/13 05:34:37;;;;;;;11.13;7.43;;;;;;;20.13;72.35;97298.16;10244227;28;20082;-56
2022/08/13 05:39:36;;;;;;;14.10;8.50;;;;;;;19.87;74.81;97280.94;10248520;28;20534;-57
2022/08/13 05:44:35;;;;;;;12.30;8.95;;;;;;;19.76;76.89;97291.09;10249829;28;20077;-57
2022/08/13 05:49:34;;;;;;;14.77;10.10;;;;;;;19.62;79.38;97303.09;10248220;28;20058;-56
2022/08/13 05:54:34;;;;;;;14.60;10.45;;;;;;;19.57;81.24;97306.84;10209863;28;20117;-56
2022/08/13 06:04:50;;;;;;;18.30;10.15;;;;;;;19.35;83.11;97302.50;10209713;28;20504;-55
2022/08/13 06:09:49;;;;;;;17.90;9.68;;;;;;;19.42;84.26;97303.09;10216392;28;20456;-58
2022/08/13 06:14:50;;;;;;;14.10;8.95;;;;;;;19.53;85.57;97308.72;10221091;28;20113;-58
2022/08/13 06:19:51;;;;;;;14.77;9.82;;;;;;;19.75;86.45;97306.03;10211293;28;20085;-57
2022/08/13 06:24:51;;;;;;;16.90;10.18;;;;;;;19.97;86.51;97298.00;10218272;28;20140;-57
2022/08/13 06:29:51;;;;;;;12.90;9.45;;;;;;;20.22;86.42;97292.44;10247672;28;20117;-56
2022/08/13 06:34:51;;;;;;;12.90;9.10;;;;;;;20.49;85.68;97300.00;10239720;28;20086;-55
2022/08/13 06:39:52;;;;;;;11.30;9.13;;;;;;;20.78;85.79;97303.84;10247880;28;20133;-56
2022/08/13 06:44:54;;;;;;;12.98;8.10;;;;;;;21.05;84.92;97300.75;10256680;28;20072;-56
2022/08/13 06:49:53;;;;;;;11.38;9.10;;;;;;;21.24;83.75;97298.94;10256269;28;20668;-56
2022/08/13 06:54:55;;;;;;;11.95;8.85;;;;;;;21.38;82.46;97295.56;10245761;28;20085;-57
2022/08/13 06:59:56;;;;;;;11.85;9.30;;;;;;;21.58;80.85;97298.97;10218735;28;20097;-57
2022/08/13 07:04:57;;;;;;;11.65;10.23;;;;;;;21.72;80.46;97299.94;10256612;28;20088;-57
2022/08/13 07:09:56;;;;;;;15.95;10.98;;;;;;;21.79;80.27;97304.91;10256218;28;20069;-57
2022/08/13 07:14:55;;;;;;;14.30;11.15;;;;;;;21.85;80.49;97305.44;10224339;28;20074;-57
2022/08/13 07:19:55;;;;;;;15.07;10.63;;;;;;;21.69;78.06;97304.53;10245292;28;20029;-57
2022/08/13 07:24:54;;;;;;;12.70;9.82;;;;;;;21.69;79.88;97307.19;10254315;28;20101;-57
2022/08/13 07:29:54;;;;;;;12.82;9.57;;;;;;;21.74;79.38;97313.06;10231864;28;20078;-56
2022/08/13 07:34:58;;;;;;;13.35;9.60;;;;;;;21.31;79.07;97310.91;10241381;28;20093;-57
2022/08/13 07:39:59;;;;;;;12.48;9.52;;;;;;;21.05;78.96;97298.13;10249333;28;20073;-57
2022/08/13 07:44:58;;;;;;;12.20;9.95;;;;;;;21.04;79.94;97301.72;10247188;28;20086;-57
2022/08/13 07:50:01;;;;;;;12.30;10.50;;;;;;;21.20;81.77;97312.34;10257526;28;20069;-57
2022/08/13 07:55:01;;;;;;;12.80;10.80;;;;;;;21.54;82.16;97309.69;10229478;28;20081;-57
2022/08/13 08:00:00;;;;;;;13.05;10.23;;;;;;;21.76;79.79;97300.66;10217530;28;20078;-58
2022/08/13 08:04:59;;;;;;;8.48;7.43;;;;;;;21.77;77.39;97307.63;10237345;28;20026;-56
2022/08/13 08:09:59;;;;;;;10.60;6.80;;;;;;;21.77;73.68;97307.63;10256839;28;20470;-57
2022/08/13 08:15:00;;;;;;;9.15;7.30;;;;;;;21.90;76.08;97307.84;10244364;28;20824;-57
2022/08/13 08:20:02;;;;;;;11.05;9.25;;;;;;;22.08;76.99;97300.69;10257168;28;20073;-57
2022/08/13 08:25:03;;;;;;;11.60;8.57;;;;;;;22.29;75.28;97301.31;10255984;28;20089;-57
2022/08/13 08:30:02;;;;;;;9.98;8.90;;;;;;;22.21;75.88;97285.88;10256326;28;20061;-57
2022/08/13 08:35:02;;;;;;;11.80;9.27;;;;;;;22.32;76.62;97302.00;10239840;28;20078;-58
2022/08/13 08:45:24;;;;;;;13.30;11.65;;;;;;;22.46;77.60;97290.66;10214266;28;20078;-57
2022/08/13 08:50:26;;;;;;;15.30;13.27;;;;;;;22.52;78.17;97286.81;10252733;28;20081;-57
2022/08/13 08:55:25;;;;;;;15.65;13.52;;;;;;;22.60;78.30;97287.25;10246646;28;20121;-57
2022/08/13 09:00:24;;;;;;;15.50;12.00;;;;;;;22.62;78.40;97293.25;10248645;28;20082;-57
2022/08/13 09:05:25;;;;;;;13.80;11.02;;;;;;;22.69;78.33;97293.78;10248745;28;20041;-57
2022/08/13 09:10:24;;;;;;;12.13;10.77;;;;;;;22.71;78.65;97284.81;10236627;28;20055;-57
2022/08/13 09:15:23;;;;;;;11.65;10.18;;;;;;;22.78;78.25;97295.94;10221204;28;20105;-57
2022/08/13 09:20:28;;;;;;;12.65;10.60;;;;;;;22.83;78.91;97293.84;10211094;28;20062;-57
2022/08/13 09:25:27;;;;;;;11.63;10.43;;;;;;;22.86;78.17;97290.19;10215634;28;21085;-57
2022/08/13 09:30:26;;;;;;;11.30;9.85;;;;;;;22.88;77.50;97290.94;10217360;28;20125;-57
2022/08/13 09:35:28;;;;;;;12.07;10.77;;;;;;;22.91;77.53;97291.63;10218021;28;20059;-57
2022/08/13 09:40:30;;;;;;;12.70;11.40;;;;;;;22.92;78.55;97293.31;10234217;28;20074;-56
2022/08/13 09:45:33;;;;;;;14.60;10.95;;;;;;;22.95;78.19;97294.94;10248532;28;20081;-57
2022/08/13 09:50:32;;;;;;;12.25;10.80;;;;;;;22.92;76.31;97298.63;10249294;28;20468;-57
2022/08/13 09:55:31;;;;;;;12.25;10.65;;;;;;;22.84;75.75;97290.28;10248602;28;20465;-57
2022/08/13 10:00:33;;;;;;;14.35;11.60;;;;;;;22.72;76.36;97297.13;10246159;28;20065;-57
2022/08/13 10:05:34;;;;;;;12.95;10.85;;;;;;;22.63;76.84;97295.00;10249653;28;20081;-57
2022/08/13 10:10:33;;;;;;;12.88;10.77;;;;;;;22.62;77.04;97300.34;10253550;28;20084;-59
2022/08/13 10:15:32;;;;;;;13.82;12.32;;;;;;;22.60;78.18;97293.38;10257251;28;20077;-58
2022/08/13 10:20:33;;;;;;;14.35;12.85;;;;;;;22.66;78.56;97302.75;10237368;28;20493;-58
2022/08/13 10:25:33;;;;;;;15.68;12.70;;;;;;;22.69;78.98;97302.56;10216562;28;20085;-58
2022/08/13 10:30:32;;;;;;;13.77;12.05;;;;;;;22.62;78.34;97295.91;10233548;28;20484;-58
2022/08/13 10:35:31;;;;;;;16.40;12.60;;;;;;;22.51;78.66;97304.47;10256742;28;20455;-58
2022/08/13 10:40:30;;;;;;;18.08;13.57;;;;;;;22.29;78.98;97304.81;10237770;28;20069;-58
2022/08/13 10:45:30;;;;;;;16.95;13.50;;;;;;;22.08;79.68;97300.69;10243227;28;20027;-58
2022/08/13 10:50:30;;;;;;;16.27;13.57;;;;;;;21.92;79.71;97301.53;10232016;28;20406;-58
2022/08/13 10:55:30;;;;;;;18.58;14.10;;;;;;;21.73;80.59;97295.50;10224688;28;20097;-56
2022/08/13 11:00:29;;;;;;;18.17;15.07;;;;;;;21.67;81.80;97301.13;10233271;28;20084;-57
2022/08/13 11:05:28;;;;;;;17.92;15.02;;;;;;;21.71;83.10;97292.09;10293467;28;20033;-57
2022/08/13 11:10:27;;;;;;;18.02;15.15;;;;;;;21.82;83.82;97289.72;10296551;28;20861;-58
2022/08/13 11:15:26;;;;;;;18.75;14.95;;;;;;;21.93;83.22;97283.88;10288998;28;20076;-57
2022/08/13 11:20:27;;;;;;;17.20;13.20;;;;;;;21.96;82.88;97275.78;10258890;28;20534;-58
2022/08/13 11:25:26;;;;;;;16.27;13.00;;;;;;;22.05;81.45;97272.66;10271984;28;20512;-58
2022/08/13 11:30:25;;;;;;;14.65;13.15;;;;;;;22.10;81.32;97262.69;10271021;28;20809;-58
2022/08/13 11:35:24;;;;;;;17.02;13.30;;;;;;;22.21;79.77;97259.47;10274298;28;20054;-57
2022/08/13 11:40:24;;;;;;;15.00;12.73;;;;;;;22.31;77.34;97260.63;10240968;28;20531;-57
2022/08/13 11:45:23;;;;;;;15.15;12.27;;;;;;;22.28;75.52;97250.25;10214733;28;20524;-57
2022/08/13 11:50:22;;;;;;;13.07;11.23;;;;;;;22.23;74.63;97241.72;10214073;28;20816;-56
2022/08/13 11:55:21;;;;;;;16.02;11.68;;;;;;;22.34;72.84;97249.91;10210390;28;20411;-57
2022/08/13 12:00:20;;;;;;;11.80;10.50;;;;;;;22.61;73.01;97251.91;10212900;28;20117;-57
2022/08/13 12:05:19;;;;;;;13.48;10.82;;;;;;;22.88;70.92;97230.97;10209900;28;20073;-57
2022/08/13 12:10:19;;;;;;;11.30;10.10;;;;;;;23.33;71.03;97229.16;10206783;28;20792;-57
2022/08/13 12:15:18;;;;;;;13.82;10.43;;;;;;;23.48;68.11;97227.38;10184471;28;20075;-57
2022/08/13 12:20:23;;;;;;;11.25;10.00;;;;;;;23.60;65.75;97221.31;10176330;28;20067;-57
2022/08/13 12:25:25;;;;;;;12.38;10.75;;;;;;;23.59;64.84;97224.06;10195988;28;20112;-56
2022/08/13 12:30:24;;;;;;;13.45;11.55;;;;;;;23.51;66.70;97215.75;10292281;28;20061;-57
2022/08/13 12:35:23;;;;;;;16.77;12.45;;;;;;;23.42;68.82;97209.22;10290807;28;20041;-58
2022/08/13 12:40:22;;;;;;;14.70;12.38;;;;;;;23.16;69.48;97201.06;10291674;28;20042;-57
2022/08/13 12:45:21;;;;;;;14.75;11.18;;;;;;;23.01;68.48;97217.84;10294908;28;20096;-56
2022/08/13 12:50:20;;;;;;;12.27;10.10;;;;;;;22.53;68.54;97230.31;10293793;28;20113;-57
2022/08/13 12:55:19;;;;;;;14.60;11.55;;;;;;;22.29;70.24;97232.59;10294851;28;20076;-57
2022/08/13 13:00:18;;;;;;;14.07;11.70;;;;;;;22.02;71.81;97248.22;10294648;28;20065;-58
2022/08/13 13:05:17;;;;;;;12.38;11.07;;;;;;;21.85;73.45;97249.09;10286155;28;20080;-56
2022/08/13 13:10:16;;;;;;;13.85;11.30;;;;;;;21.61;74.75;97254.75;10294356;28;20072;-57
2022/08/13 13:15:15;;;;;;;13.98;12.48;;;;;;;21.39;78.33;97254.22;10291070;28;20072;-57
2022/08/13 13:20:14;;;;;;;16.80;13.02;;;;;;;21.30;81.00;97258.19;10293197;28;20105;-57
2022/08/13 13:25:13;;;;;;;14.15;12.50;;;;;;;21.16;80.08;97261.50;10291889;28;20044;-57
2022/08/13 13:30:13;;;;;;;17.38;13.75;;;;;;;21.28;81.51;97267.97;10292648;28;20033;-58
2022/08/13 13:35:12;;;;;;;19.08;14.98;;;;;;;21.30;82.99;97272.22;10261971;28;20554;-57
2022/08/13 13:40:13;;;;;;;18.95;15.93;;;;;;;21.28;84.38;97274.09;10291766;28;20108;-57
2022/08/13 13:45:12;;;;;;;19.30;16.60;;;;;;;21.28;85.56;97267.97;10289991;28;20074;-57
2022/08/13 13:50:10;;;;;;;19.75;17.15;;;;;;;21.11;85.92;97272.28;10289477;28;20046;-59
2022/08/13 13:55:09;;;;;;;18.77;15.48;;;;;;;20.96;86.57;97272.22;10290118;28;20026;-59
2022/08/13 14:00:12;;;;;;;17.85;14.93;;;;;;;20.90;86.81;97276.03;10283693;28;20052;-57
2022/08/13 14:05:11;;;;;;;18.38;15.25;;;;;;;20.84;86.73;97277.16;10289680;28;20073;-57
2022/08/13 14:10:11;;;;;;;19.13;16.08;;;;;;;20.77;87.57;97274.91;10287262;28;20598;-57
2022/08/13 14:15:10;;;;;;;18.70;15.05;;;;;;;20.64;88.11;97264.97;10281054;28;20069;-57
2022/08/13 14:20:11;;;;;;;18.77;15.65;;;;;;;20.53;87.77;97259.38;10249725;28;20538;-59
2022/08/13 14:25:13;;;;;;;19.27;15.52;;;;;;;20.39;87.96;97257.38;10252234;28;20076;-57
2022/08/13 14:30:14;;;;;;;20.00;15.43;;;;;;;20.27;89.05;97245.66;10288139;28;20496;-58
2022/08/13 14:35:15;;;;;;;21.00;15.77;;;;;;;20.21;89.52;97232.78;10271764;28;20089;-59
2022/08/13 14:40:16;;;;;;;17.63;14.40;;;;;;;20.25;89.77;97229.06;10275164;28;20714;-59
2022/08/13 14:50:44;;;;;;;18.30;14.32;;;;;;;20.35;89.38;97210.16;10247622;28;20054;-58
2022/08/13 14:55:45;;;;;;;17.48;14.18;;;;;;;20.39;89.59;97202.03;10252907;28;20065;-58
2022/08/13 15:00:46;;;;;;;17.58;13.95;;;;;;;20.41;89.51;97194.09;10256065;28;20062;-57
2022/08/13 15:05:48;;;;;;;19.17;13.90;;;;;;;20.38;88.77;97195.06;10254642;28;20056;-57
2022/08/13 15:10:52;;;;;;;19.13;13.93;;;;;;;20.38;88.15;97192.44;10254999;28;20069;-58
2022/08/13 15:15:53;;;;;;;17.10;14.70;;;;;;;20.31;88.50;97179.66;10254544;28;20484;-58
2022/08/13 15:20:52;;;;;;;18.90;16.27;;;;;;;20.31;88.69;97179.66;10287721;28;20495;-58
2022/08/13 15:25:52;;;;;;;17.98;14.52;;;;;;;20.44;88.89;97183.41;10294248;28;20066;-57
2022/08/13 15:30:51;;;;;;;18.40;15.50;;;;;;;20.43;89.00;97179.06;10293268;28;20073;-57
2022/08/13 15:35:52;;;;;;;20.42;16.52;;;;;;;20.47;89.28;97175.34;10268707;28;20163;-57
2022/08/13 15:40:56;;;;;;;21.92;17.23;;;;;;;20.48;89.60;97172.63;10284313;28;20070;-57
2022/08/13 15:45:57;;;;;;;25.88;18.77;;;;;;;20.48;89.86;97172.63;10297216;28;20077;-57
2022/08/13 15:50:58;;;;;;;20.42;17.10;;;;;;;20.42;90.15;97167.69;10266599;28;20073;-58
2022/08/13 15:55:59;;;;;;;21.25;18.63;;;;;;;20.38;90.31;97171.38;10295604;28;20083;-58
2022/08/13 16:01:00;;;;;;;20.98;16.85;;;;;;;20.27;90.87;97150.81;10286181;28;20085;-58
2022/08/13 16:06:00;;;;;;;22.35;17.55;;;;;;;20.34;91.33;97174.22;10283412;28;20077;-58
2022/08/13 16:11:00;;;;;;;24.60;17.92;;;;;;;20.29;91.47;97159.50;10268444;28;20085;-58
2022/08/13 16:16:00;;;;;;;26.42;18.75;;;;;;;20.30;91.70;97162.97;10265937;28;20078;-59
2022/08/13 16:20:59;;;;;;;22.10;17.90;;;;;;;20.31;91.95;97158.56;10262099;28;20076;-58
2022/08/13 16:26:00;;;;;;;25.65;18.73;;;;;;;20.32;92.04;97160.25;10269332;28;20040;-58
2022/08/13 16:31:01;;;;;;;24.30;18.65;;;;;;;20.32;92.04;97166.38;10290389;28;20080;-58
2022/08/13 16:36:02;;;;;;;23.67;18.77;;;;;;;20.27;92.16;97169.25;10292863;28;20077;-58
2022/08/13 16:41:02;;;;;;;26.38;18.27;;;;;;;20.29;92.17;97159.50;10253536;28;20054;-58
2022/08/13 16:46:03;;;;;;;23.20;18.83;;;;;;;20.24;92.29;97168.56;10274483;28;20076;-58
2022/08/13 16:51:02;;;;;;;25.58;18.20;;;;;;;20.17;92.08;97159.25;10287632;28;20117;-57
2022/08/13 16:56:01;;;;;;;22.90;17.80;;;;;;;20.06;92.05;97159.75;10276763;28;20116;-57
2022/08/13 17:01:00;;;;;;;24.65;17.88;;;;;;;19.95;92.08;97152.38;10287194;28;20073;-58
2022/08/13 17:11:17;;;;;;;25.50;18.30;;;;;;;19.62;92.03;97145.16;10265761;28;20069;-57
2022/08/13 17:16:16;;;;;;;23.88;17.45;;;;;;;19.60;92.25;97168.09;10289022;28;20088;-58
2022/08/13 17:21:15;;;;;;;25.67;18.15;;;;;;;19.51;92.55;97163.22;10249812;28;20109;-58
2022/08/13 17:26:15;;;;;;;24.92;17.60;;;;;;;19.47;92.94;97158.19;10251941;28;20549;-58
2022/08/13 17:31:15;;;;;;;24.23;16.80;;;;;;;19.27;92.83;97154.66;10253920;28;20117;-59
2022/08/13 17:36:15;;;;;;;24.48;16.63;;;;;;;19.18;92.80;97165.59;10275437;28;20093;-58
2022/08/13 17:41:14;;;;;;;24.08;17.73;;;;;;;19.03;92.95;97161.88;10270047;28;20078;-58
2022/08/13 17:46:16;;;;;;;23.90;17.88;;;;;;;18.91;92.94;97159.81;10277997;28;20053;-58
2022/08/13 17:51:19;;;;;;;22.33;16.63;;;;;;;18.80;92.99;97161.09;10253204;28;20068;-58
2022/08/13 17:56:18;;;;;;;22.10;15.98;;;;;;;18.76;92.83;97169.19;10262118;28;20520;-58
2022/08/13 18:01:20;;;;;;;22.10;16.25;;;;;;;18.70;92.44;97158.97;10273703;28;20077;-58
2022/08/13 18:06:20;;;;;;;24.25;16.73;;;;;;;18.62;92.58;97151.38;10264660;28;20093;-58
2022/08/13 18:11:19;;;;;;;23.70;17.90;;;;;;;18.51;92.84;97153.59;10256113;28;20077;-58
2022/08/13 18:16:19;;;;;;;23.55;16.75;;;;;;;18.43;93.24;97164.41;10255761;28;20073;-58
2022/08/13 18:21:18;;;;;;;20.55;16.65;;;;;;;18.34;93.43;97162.22;10261832;28;20074;-58
2022/08/13 18:26:17;;;;;;;22.00;17.17;;;;;;;18.32;93.47;97175.41;10250096;28;20093;-57
2022/08/13 18:31:16;;;;;;;22.00;16.38;;;;;;;18.26;93.80;97178.25;10266397;28;20034;-57
2022/08/13 18:36:15;;;;;;;24.38;17.15;;;;;;;18.20;93.86;97173.28;10291695;28;20084;-59
2022/08/13 18:41:15;;;;;;;25.17;16.83;;;;;;;18.16;93.93;97183.03;10293461;28;20034;-59
2022/08/13 18:46:14;;;;;;;26.70;18.13;;;;;;;18.18;93.92;97183.84;10296884;28;20069;-59
2022/08/13 18:51:13;;;;;;;23.00;16.90;;;;;;;18.22;93.69;97194.22;10294605;28;20060;-57
2022/08/13 18:56:12;;;;;;;21.80;17.00;;;;;;;18.19;93.68;97185.53;10295159;28;20040;-58
2022/08/13 19:01:12;;;;;;;25.83;17.75;;;;;;;18.13;94.08;97183.19;10293176;28;20046;-58
2022/08/13 19:06:11;;;;;;;25.38;16.55;;;;;;;18.17;94.11;97190.03;10294612;28;20072;-58
2022/08/13 19:11:10;;;;;;;24.83;18.08;;;;;;;18.17;94.30;97186.50;10292533;28;20076;-57
2022/08/13 19:16:09;;;;;;;25.08;18.63;;;;;;;18.15;94.28;97178.72;10295052;28;20076;-57
2022/08/13 19:21:08;;;;;;;26.52;18.42;;;;;;;18.16;94.51;97188.28;10294751;28;20037;-58
2022/08/13 19:26:07;;;;;;;23.98;18.48;;;;;;;18.15;94.96;97185.72;10293328;28;20492;-58
2022/08/13 19:31:06;;;;;;;23.45;17.77;;;;;;;18.12;94.58;97196.34;10295917;28;20081;-58
2022/08/13 19:36:05;;;;;;;24.75;18.27;;;;;;;18.11;94.46;97192.88;10276802;28;20080;-58
2022/08/13 19:41:07;;;;;;;23.73;18.30;;;;;;;18.08;94.36;97184.25;10293685;28;20103;-58
2022/08/13 19:46:21;;;;;;;21.52;17.02;;;;;;;18.05;94.47;97180.00;10279425;28;20061;-58
2022/08/13 19:51:21;;;;;;;27.17;17.98;;;;;;;18.02;94.50;97181.91;10294317;28;20440;-58
2022/08/13 19:56:21;;;;;;;23.90;17.98;;;;;;;18.02;94.75;97172.25;10291938;28;20099;-58
2022/08/13 20:01:21;;;;;;;27.75;19.67;;;;;;;18.00;94.80;97163.56;10293589;28;20076;-59
2022/08/13 20:06:20;;;;;;;25.00;19.13;;;;;;;18.00;94.98;97168.81;10291520;28;20088;-59
2022/08/13 20:11:19;;;;;;;27.08;19.85;;;;;;;17.99;94.89;97161.88;10293058;28;20036;-58
2022/08/13 20:16:19;;;;;;;27.90;19.80;;;;;;;17.95;95.16;97155.03;10291853;28;20069;-58
2022/08/13 20:21:18;;;;;;;31.30;21.10;;;;;;;17.91;95.22;97163.94;10292377;28;20089;-58
2022/08/13 20:26:17;;;;;;;30.30;21.48;;;;;;;17.82;95.68;97145.94;10291115;28;20072;-59
2022/08/13 20:31:16;;;;;;;29.10;22.17;;;;;;;17.76;95.98;97153.13;10292581;28;20076;-58
2022/08/13 20:36:15;;;;;;;34.28;22.40;;;;;;;17.69;96.02;97149.00;10284631;28;20148;-58
2022/08/13 20:41:15;;;;;;;33.67;21.83;;;;;;;17.66;96.28;97150.88;10294043;28;20094;-58
2022/08/13 20:46:14;;;;;;;33.30;21.17;;;;;;;17.63;96.46;97159.75;10294521;28;20058;-58
2022/08/13 20:51:13;;;;;;;34.55;22.58;;;;;;;17.56;96.40;97148.63;10294336;28;20439;-58
2022/08/13 20:56:12;;;;;;;31.20;19.55;;;;;;;17.56;96.38;97158.25;10293374;28;20022;-58
2022/08/13 21:01:14;;;;;;;29.90;18.95;;;;;;;17.57;96.34;97160.00;10295006;28;20781;-57
2022/08/13 21:06:14;;;;;;;27.85;18.73;;;;;;;17.55;96.44;97167.91;10284988;28;20469;-58
2022/08/13 21:11:13;;;;;;;23.33;17.52;;;;;;;17.47;96.54;97159.50;10263014;28;20066;-58
2022/08/13 21:16:12;;;;;;;29.30;17.17;;;;;;;17.46;96.65;97155.16;10253768;28;20032;-58
2022/08/13 21:21:11;;;;;;;30.42;18.23;;;;;;;17.48;96.95;97149.84;10254467;28;20511;-59
2022/08/13 21:26:10;;;;;;;25.63;17.60;;;;;;;17.47;96.97;97148.13;10254230;28;20049;-58
2022/08/13 21:31:09;;;;;;;24.63;17.90;;;;;;;17.44;96.72;97149.09;10253131;28;20069;-58
2022/08/13 21:36:08;;;;;;;22.02;16.73;;;;;;;17.39;96.68;97145.81;10263105;28;20046;-58
2022/08/13 21:41:07;;;;;;;24.90;16.55;;;;;;;17.31;96.65;97145.25;10258738;28;20078;-58
2022/08/13 21:46:06;;;;;;;24.80;17.95;;;;;;;17.32;96.47;97139.09;10249954;28;20443;-58
2022/08/13 21:51:05;;;;;;;;;;;;;;;17.29;96.89;97142.69;10275836;28;20033;-58
2022/08/13 21:56:04;;;;;;;29.60;19.63;;;;;;;17.28;97.16;97151.44;10290733;28;20011;-58
2022/08/13 22:01:03;;;;;;;32.40;20.00;;;;;;;17.29;97.16;97150.53;10289289;28;20073;-58
2022/08/13 22:06:02;;;;;;;27.17;18.42;;;;;;;17.31;97.21;97143.47;10289280;28;20066;-58
2022/08/13 22:11:01;;;;;;;25.08;17.52;;;;;;;17.26;97.39;97148.06;10287497;28;20180;-58
2022/08/13 22:16:01;;;;;;;25.02;17.45;;;;;;;17.12;97.57;97130.22;10286392;28;20053;-58
2022/08/13 22:21:00;;;;;;;24.50;17.95;;;;;;;17.17;97.71;97131.78;10288253;28;20082;-58
2022/08/13 22:25:59;;;;;;;25.48;17.30;;;;;;;17.28;97.99;97133.09;10270141;28;20070;-58
2022/08/13 22:31:01;;;;;;;26.55;18.77;;;;;;;17.26;97.83;97137.56;10250090;28;20061;-58
2022/08/13 22:36:00;;;;;;;26.05;17.63;;;;;;;17.26;97.73;97131.44;10273700;28;20077;-58
2022/08/13 22:40:59;;;;;;;25.55;18.35;;;;;;;17.33;97.79;97135.53;10250614;28;20077;-58
2022/08/13 22:45:59;;;;;;;29.33;20.13;;;;;;;17.35;98.04;97131.09;10249470;28;20492;-58
2022/08/13 22:50:58;;;;;;;29.77;19.02;;;;;;;17.32;97.94;97108.47;10284004;28;20117;-58
2022/08/13 22:55:57;;;;;;;32.20;20.48;;;;;;;17.30;97.97;97119.94;10290444;28;20451;-58
2022/08/13 23:00:56;;;;;;;31.33;21.50;;;;;;;17.31;98.14;97126.91;10272521;28;20077;-58
2022/08/13 23:05:55;;;;;;;35.25;23.55;;;;;;;17.27;98.24;97120.06;10289354;28;20030;-58
2022/08/13 23:10:54;;;;;;;;;;;;;;;17.24;98.50;97121.03;10288603;28;20057;-58
2022/08/13 23:15:54;;;;;;;35.57;21.73;;;;;;;17.19;98.72;97128.22;10288457;28;19913;-58
2022/08/13 23:20:55;;;;;;;32.97;22.35;;;;;;;16.97;99.25;97127.28;10255771;28;20062;-58